createdAt,value
2022-07-28T00:02:07.284Z,98460.72
2022-07-28T00:04:34.358Z,98459.91
2022-07-28T00:07:01.605Z,98456.63
2022-07-28T00:09:28.787Z,98461.75
2022-07-28T00:11:55.311Z,98451.34
2022-07-28T00:14:22.680Z,98446.50
2022-07-28T00:16:49.354Z,98449.25
2022-07-28T00:19:16.648Z,98440.28
2022-07-28T00:21:43.369Z,98445.19
2022-07-28T00:24:10.172Z,98451.00
2022-07-28T00:26:37.384Z,98446.75
2022-07-28T00:29:04.897Z,98448.09
2022-07-28T00:31:31.604Z,98441.53
2022-07-28T00:33:58.292Z,98440.44
2022-07-28T00:36:25.814Z,98447.53
2022-07-28T00:38:52.948Z,98437.44
2022-07-28T00:41:20.569Z,98439.50
2022-07-28T00:43:49.294Z,98429.41
2022-07-28T00:46:18.117Z,98433.69
2022-07-28T00:48:48.227Z,98431.03
2022-07-28T00:51:18.691Z,98431.66
2022-07-28T00:53:45.721Z,98425.09
2022-07-28T00:56:12.809Z,98424.28
2022-07-28T00:58:40.235Z,98418.34
2022-07-28T01:01:09.508Z,98428.28
2022-07-28T01:03:41.887Z,98420.19
2022-07-28T01:06:26.291Z,98416.50
2022-07-28T01:09:10.129Z,98417.41
2022-07-28T01:12:05.438Z,98417.50
2022-07-28T01:14:44.977Z,98415.59
2022-07-28T01:17:25.789Z,98412.69
2022-07-28T01:20:06.067Z,98420.97
2022-07-28T01:22:38.329Z,98408.91
2022-07-28T01:25:51.198Z,98412.25
2022-07-28T01:28:23.551Z,98407.09
2022-07-28T01:30:54.579Z,98396.81
2022-07-28T01:33:44.257Z,98401.28
2022-07-28T01:36:15.344Z,98395.53
2022-07-28T01:38:43.910Z,98398.50
2022-07-28T01:41:14.706Z,98387.59
2022-07-28T01:43:45.791Z,98393.53
2022-07-28T01:46:14.487Z,98389.31
2022-07-28T01:48:43.093Z,98397.81
2022-07-28T01:51:12.547Z,98379.81
2022-07-28T01:53:40.682Z,98379.66
2022-07-28T01:56:08.045Z,98375.63
2022-07-28T01:58:37.235Z,98387.97
2022-07-28T02:01:05.749Z,98380.44
2022-07-28T02:03:34.419Z,98380.88
2022-07-28T02:06:04.241Z,98374.44
2022-07-28T02:08:33.156Z,98382.09
2022-07-28T02:11:18.602Z,98367.78
2022-07-28T02:13:48.183Z,98365.00
2022-07-28T02:16:17.391Z,98378.22
2022-07-28T02:18:45.721Z,98373.03
2022-07-28T02:21:13.397Z,98371.22
2022-07-28T02:23:43.123Z,98366.38
2022-07-28T02:26:12.206Z,98374.63
2022-07-28T02:28:43.576Z,98364.34
2022-07-28T02:31:20.021Z,98370.94
2022-07-28T02:34:00.338Z,98367.00
2022-07-28T02:36:32.102Z,98367.88
2022-07-28T02:39:07.180Z,98361.66
2022-07-28T02:41:38.076Z,98363.47
2022-07-28T02:44:12.092Z,98362.69
2022-07-28T02:46:44.792Z,98364.84
2022-07-28T02:49:20.297Z,98368.44
2022-07-28T02:51:49.296Z,98349.00
2022-07-28T02:54:17.966Z,98354.25
2022-07-28T02:56:53.721Z,98349.88
2022-07-28T02:59:21.598Z,98331.56
2022-07-28T03:01:49.629Z,98338.31
2022-07-28T03:04:17.728Z,98333.19
2022-07-28T03:06:44.825Z,98342.13
2022-07-28T03:09:11.421Z,98345.69
2022-07-28T03:11:52.543Z,98346.63
2022-07-28T03:14:19.083Z,98329.16
2022-07-28T03:16:45.801Z,98334.34
2022-07-28T03:19:12.468Z,98328.22
2022-07-28T03:21:41.322Z,98329.25
2022-07-28T03:24:10.482Z,98330.91
2022-07-28T03:26:43.415Z,98331.28
2022-07-28T03:29:11.124Z,98335.06
2022-07-28T03:31:40.251Z,98347.16
2022-07-28T03:34:07.241Z,98345.91
2022-07-28T03:36:42.451Z,98340.63
2022-07-28T03:39:11.811Z,98336.16
2022-07-28T03:41:42.211Z,98334.44
2022-07-28T03:44:10.968Z,98337.25
2022-07-28T03:46:44.678Z,98336.47
2022-07-28T03:49:11.563Z,98331.84
2022-07-28T03:51:38.433Z,98336.31
2022-07-28T03:54:05.031Z,98330.34
2022-07-28T03:56:32.097Z,98340.22
2022-07-28T03:58:58.660Z,98334.97
2022-07-28T04:01:25.307Z,98334.00
2022-07-28T04:03:51.889Z,98336.47
2022-07-28T04:06:18.710Z,98334.00
2022-07-28T04:08:45.307Z,98336.94
2022-07-28T04:11:12.612Z,98331.59
2022-07-28T04:13:39.316Z,98330.56
2022-07-28T04:16:07.178Z,98326.16
2022-07-28T04:18:34.177Z,98326.16
2022-07-28T04:21:00.793Z,98334.50
2022-07-28T04:23:28.115Z,98330.88
2022-07-28T04:25:55.262Z,98326.38
2022-07-28T04:28:22.131Z,98330.88
2022-07-28T04:30:48.708Z,98335.25
2022-07-28T04:33:15.403Z,98333.63
2022-07-28T04:35:42.025Z,98338.03
2022-07-28T04:38:08.635Z,98337.72
2022-07-28T04:40:35.271Z,98335.81
2022-07-28T04:43:03.601Z,98325.56
2022-07-28T04:45:30.323Z,98330.59
2022-07-28T04:47:56.909Z,98315.91
2022-07-28T04:50:23.694Z,98311.09
2022-07-28T04:52:58.679Z,98320.31
2022-07-28T04:55:25.629Z,98320.72
2022-07-28T04:57:52.414Z,98323.69
2022-07-28T05:00:19.934Z,98324.56
2022-07-28T05:02:49.044Z,98323.59
2022-07-28T05:05:15.783Z,98333.13
2022-07-28T05:07:42.392Z,98330.09
2022-07-28T05:10:11.823Z,98332.72
2022-07-28T05:12:38.961Z,98327.09
2022-07-28T05:15:06.688Z,98326.84
2022-07-28T05:17:33.276Z,98324.00
2022-07-28T05:19:59.928Z,98325.69
2022-07-28T05:22:26.884Z,98321.19
2022-07-28T05:24:53.431Z,98325.84
2022-07-28T05:27:20.473Z,98323.53
2022-07-28T05:29:48.093Z,98326.22
2022-07-28T05:32:16.472Z,98319.81
2022-07-28T05:34:44.665Z,98323.34
2022-07-28T05:37:11.284Z,98323.28
2022-07-28T05:39:37.833Z,98330.03
2022-07-28T05:42:04.846Z,98323.13
2022-07-28T05:44:37.276Z,98322.41
2022-07-28T05:47:04.859Z,98329.00
2022-07-28T05:49:31.503Z,98327.78
2022-07-28T05:51:58.053Z,98332.72
2022-07-28T05:54:25.887Z,98331.59
2022-07-28T05:56:52.791Z,98331.22
2022-07-28T05:59:19.407Z,98324.06
2022-07-28T06:01:46.548Z,98337.69
2022-07-28T06:04:29.434Z,98332.19
2022-07-28T06:06:56.313Z,98332.94
2022-07-28T06:09:22.891Z,98332.88
2022-07-28T06:11:52.452Z,98339.59
2022-07-28T06:14:19.411Z,98339.44
2022-07-28T06:16:50.888Z,98327.84
2022-07-28T06:19:18.283Z,98337.31
2022-07-28T06:21:44.915Z,98332.25
2022-07-28T06:24:11.905Z,98334.31
2022-07-28T06:26:44.380Z,98332.63
2022-07-28T06:29:11.516Z,98326.16
2022-07-28T06:31:38.989Z,98324.72
2022-07-28T06:34:05.786Z,98330.81
2022-07-28T06:36:32.363Z,98320.09
2022-07-28T06:38:58.954Z,98321.66
2022-07-28T06:41:25.483Z,98317.97
2022-07-28T06:43:52.362Z,98321.88
2022-07-28T06:46:19.624Z,98322.00
2022-07-28T06:48:46.682Z,98310.09
2022-07-28T06:51:15.009Z,98312.44
2022-07-28T06:53:41.695Z,98317.53
2022-07-28T06:56:10.881Z,98315.88
2022-07-28T06:58:40.460Z,98317.25
2022-07-28T07:01:07.734Z,98313.22
2022-07-28T07:03:34.894Z,98324.72
2022-07-28T07:06:01.487Z,98324.34
2022-07-28T07:08:28.242Z,98320.69
2022-07-28T07:10:55.140Z,98320.88
2022-07-28T07:13:21.711Z,98316.84
2022-07-28T07:15:48.268Z,98319.13
2022-07-28T07:18:14.871Z,98313.16
2022-07-28T07:20:41.434Z,98310.28
2022-07-28T07:23:08.017Z,98307.63
2022-07-28T07:25:34.655Z,98303.50
2022-07-28T07:28:01.200Z,98298.47
2022-07-28T07:30:27.749Z,98297.88
2022-07-28T07:32:54.312Z,98303.16
2022-07-28T07:35:20.993Z,98298.63
2022-07-28T07:37:47.547Z,98287.56
2022-07-28T07:40:14.248Z,98283.16
2022-07-28T07:42:40.822Z,98277.78
2022-07-28T07:45:07.787Z,98284.56
2022-07-28T07:47:34.363Z,98284.50
2022-07-28T07:50:04.157Z,98286.53
2022-07-28T07:52:31.495Z,98281.59
2022-07-28T07:54:58.223Z,98286.81
2022-07-28T07:57:24.874Z,98286.25
2022-07-28T07:59:51.392Z,98294.69
2022-07-28T08:02:17.948Z,98290.78
2022-07-28T08:04:44.513Z,98295.38
2022-07-28T08:07:11.365Z,98289.81
2022-07-28T08:09:38.626Z,98281.91
2022-07-28T08:12:05.717Z,98291.06
2022-07-28T08:14:32.310Z,98293.97
2022-07-28T08:16:59.486Z,98297.56
2022-07-28T08:19:26.653Z,98290.84
2022-07-28T08:21:53.317Z,98293.72
2022-07-28T08:24:31.592Z,98291.38
2022-07-28T08:27:03.724Z,98274.31
2022-07-28T08:29:30.421Z,98275.31
2022-07-28T08:31:57.250Z,98277.63
2022-07-28T08:34:31.083Z,98270.88
2022-07-28T08:37:02.063Z,98276.19
2022-07-28T08:39:29.263Z,98274.56
2022-07-28T08:42:19.864Z,98277.22
2022-07-28T08:45:05.918Z,98279.66
2022-07-28T08:47:45.920Z,98288.53
2022-07-28T08:50:24.276Z,98279.06
2022-07-28T08:52:52.732Z,98274.16
2022-07-28T08:55:32.059Z,98281.44
2022-07-28T08:58:00.113Z,98279.69
2022-07-28T09:00:27.087Z,98282.22
2022-07-28T09:02:54.347Z,98274.81
2022-07-28T09:05:22.542Z,98282.41
2022-07-28T09:07:54.448Z,98283.78
2022-07-28T09:10:21.941Z,98268.25
2022-07-28T09:12:48.593Z,98262.75
2022-07-28T09:15:15.196Z,98249.19
2022-07-28T09:17:43.032Z,98245.78
2022-07-28T09:20:11.713Z,98236.63
2022-07-28T09:22:55.956Z,98244.41
2022-07-28T09:25:22.979Z,98234.81
2022-07-28T09:27:51.730Z,98229.50
2022-07-28T09:30:31.285Z,98218.28
2022-07-28T09:33:41.357Z,98220.31
2022-07-28T09:36:14.574Z,98222.03
2022-07-28T09:38:41.935Z,98225.81
2022-07-28T09:41:08.588Z,98226.53
2022-07-28T09:43:35.156Z,98239.59
2022-07-28T09:46:18.966Z,98222.28
2022-07-28T09:48:48.944Z,98213.69
2022-07-28T09:51:28.633Z,98200.72
2022-07-28T09:54:10.751Z,98198.38
2022-07-28T09:56:46.648Z,98186.06
2022-07-28T09:59:15.101Z,98187.75
2022-07-28T10:01:56.653Z,98182.31
2022-07-28T10:04:38.210Z,98188.66
2022-07-28T10:07:07.619Z,98191.00
2022-07-28T10:09:34.459Z,98187.84
2022-07-28T10:12:23.286Z,98181.19
2022-07-28T10:14:52.026Z,98171.91
2022-07-28T10:17:29.671Z,98164.59
2022-07-28T10:20:05.212Z,98163.00
2022-07-28T10:22:34.144Z,98157.50
2022-07-28T10:25:05.753Z,98154.50
2022-07-28T10:27:32.771Z,98156.63
2022-07-28T10:30:01.360Z,98148.28
2022-07-28T10:32:31.297Z,98141.69
2022-07-28T10:35:04.611Z,98157.00
2022-07-28T10:37:32.597Z,98147.84
2022-07-28T10:40:10.668Z,98161.78
2022-07-28T10:42:39.055Z,98153.97
2022-07-28T10:45:07.916Z,98151.75
2022-07-28T10:47:35.999Z,98156.56
2022-07-28T10:50:03.908Z,98154.38
2022-07-28T10:52:46.647Z,98163.09
2022-07-28T10:55:23.231Z,98170.69
2022-07-28T10:58:36.463Z,98170.81
2022-07-28T11:01:06.372Z,98166.81
2022-07-28T11:03:38.326Z,98168.25
2022-07-28T11:06:23.991Z,98168.63
2022-07-28T11:08:56.622Z,98170.84
2022-07-28T11:11:59.135Z,98164.00
2022-07-28T11:14:39.113Z,98164.66
2022-07-28T11:17:10.739Z,98154.75
2022-07-28T11:19:55.596Z,98156.31
2022-07-28T11:22:32.699Z,98152.88
2022-07-28T11:25:00.784Z,98164.53
2022-07-28T11:27:50.333Z,98163.66
2022-07-28T11:30:26.182Z,98166.19
2022-07-28T11:32:55.677Z,98166.00
2022-07-28T11:35:24.320Z,98155.41
2022-07-28T11:38:03.123Z,98155.63
2022-07-28T11:40:30.586Z,98162.50
2022-07-28T11:43:22.821Z,98157.59
2022-07-28T11:46:10.124Z,98155.06
2022-07-28T11:48:40.412Z,98164.84
2022-07-28T11:51:07.070Z,98162.53
2022-07-28T11:53:45.463Z,98148.09
2022-07-28T11:56:23.360Z,98154.22
2022-07-28T11:58:57.239Z,98145.56
2022-07-28T12:01:23.767Z,98145.16
2022-07-28T12:03:55.262Z,98145.88
2022-07-28T12:06:35.433Z,98153.88
2022-07-28T12:09:03.787Z,98151.41
2022-07-28T12:11:40.924Z,98145.75
2022-07-28T12:14:13.816Z,98143.88
2022-07-28T12:16:42.705Z,98148.38
2022-07-28T12:19:10.773Z,98141.03
2022-07-28T12:21:46.103Z,98135.13
2022-07-28T12:24:29.451Z,98139.00
2022-07-28T12:26:57.609Z,98133.06
2022-07-28T12:29:24.674Z,98126.38
2022-07-28T12:31:59.739Z,98125.38
2022-07-28T12:34:30.758Z,98121.63
2022-07-28T12:37:02.473Z,98125.00
2022-07-28T12:39:30.886Z,98133.00
2022-07-28T12:42:08.812Z,98118.34
2022-07-28T12:44:37.654Z,98117.69
2022-07-28T12:47:06.348Z,98110.50
2022-07-28T12:49:33.122Z,98110.88
2022-07-28T12:52:17.076Z,98100.09
2022-07-28T12:54:53.496Z,98096.72
2022-07-28T12:57:50.596Z,98092.25
2022-07-28T13:00:23.915Z,98090.91
2022-07-28T13:02:53.664Z,98086.50
2022-07-28T13:05:56.047Z,98097.00
2022-07-28T13:08:24.515Z,98093.09
2022-07-28T13:10:56.659Z,98090.56
2022-07-28T13:13:24.345Z,98086.09
2022-07-28T13:16:17.437Z,98090.38
2022-07-28T13:18:47.757Z,98095.13
2022-07-28T13:21:15.655Z,98089.47
2022-07-28T13:23:43.106Z,98100.06
2022-07-28T13:26:09.743Z,98097.16
2022-07-28T13:28:36.421Z,98081.47
2022-07-28T13:31:03.103Z,98083.50
2022-07-28T13:33:29.919Z,98084.69
2022-07-28T13:35:56.700Z,98085.78
2022-07-28T13:38:23.425Z,98078.28
2022-07-28T13:40:50.005Z,98082.66
2022-07-28T13:43:16.608Z,98076.22
2022-07-28T13:45:43.260Z,98078.94
2022-07-28T13:48:09.917Z,98093.63
2022-07-28T13:50:36.563Z,98089.03
2022-07-28T13:53:03.262Z,98080.13
2022-07-28T13:55:29.829Z,98080.94
2022-07-28T13:57:56.812Z,98079.72
2022-07-28T14:00:23.839Z,98091.19
2022-07-28T14:02:51.498Z,98091.69
2022-07-28T14:05:18.683Z,98084.97
2022-07-28T14:07:48.386Z,98080.31
2022-07-28T14:10:18.979Z,98078.31
2022-07-28T14:12:46.221Z,98086.56
2022-07-28T14:15:13.851Z,98085.59
2022-07-28T14:17:43.364Z,98077.41
2022-07-28T14:20:14.410Z,98079.19
2022-07-28T14:22:42.545Z,98076.59
2022-07-28T14:25:09.635Z,98072.81
2022-07-28T14:27:36.343Z,98080.59
2022-07-28T14:30:04.263Z,98072.75
2022-07-28T14:32:31.890Z,98082.06
2022-07-28T14:34:58.712Z,98091.31
2022-07-28T14:37:26.120Z,98083.25
2022-07-28T14:39:52.712Z,98082.13
2022-07-28T14:42:19.308Z,98088.22
2022-07-28T14:44:45.908Z,98092.91
2022-07-28T14:47:12.628Z,98092.28
2022-07-28T14:49:58.188Z,98099.03
2022-07-28T14:52:27.069Z,98098.19
2022-07-28T14:54:57.288Z,98096.44
2022-07-28T14:57:24.484Z,98102.09
2022-07-28T15:00:14.054Z,98094.28
2022-07-28T15:02:41.227Z,98096.88
2022-07-28T15:05:08.991Z,98107.22
2022-07-28T15:07:36.364Z,98102.63
2022-07-28T15:10:04.369Z,98104.13
2022-07-28T15:12:31.167Z,98095.56
2022-07-28T15:14:57.806Z,98094.56
2022-07-28T15:17:24.333Z,98096.56
2022-07-28T15:19:50.872Z,98095.59
2022-07-28T15:22:17.516Z,98100.66
2022-07-28T15:24:45.807Z,98095.38
2022-07-28T15:27:12.513Z,98092.53
2022-07-28T15:29:39.284Z,98093.00
2022-07-28T15:32:06.203Z,98086.72
2022-07-28T15:34:37.136Z,98081.97
2022-07-28T15:37:03.708Z,98079.53
2022-07-28T15:39:30.956Z,98074.03
2022-07-28T15:41:58.345Z,98081.84
2022-07-28T15:44:26.187Z,98075.41
2022-07-28T15:46:53.172Z,98084.69
2022-07-28T15:49:19.992Z,98081.91
2022-07-28T15:51:46.708Z,98082.88
2022-07-28T15:54:14.055Z,98088.84
2022-07-28T15:56:41.947Z,98083.78
2022-07-28T15:59:09.148Z,98081.38
2022-07-28T16:01:36.062Z,98075.66
2022-07-28T16:04:02.885Z,98073.47
2022-07-28T16:06:48.493Z,98078.28
2022-07-28T16:09:15.324Z,98079.25
2022-07-28T16:11:42.041Z,98075.44
2022-07-28T16:14:08.770Z,98070.06
2022-07-28T16:16:35.775Z,98080.91
2022-07-28T16:19:02.728Z,98072.59
2022-07-28T16:21:29.467Z,98072.53
2022-07-28T16:23:56.104Z,98069.31
2022-07-28T16:26:22.737Z,98076.72
2022-07-28T16:28:49.334Z,98067.88
2022-07-28T16:31:16.790Z,98067.63
2022-07-28T16:33:43.427Z,98065.16
2022-07-28T16:36:10.013Z,98063.91
2022-07-28T16:38:36.659Z,98069.34
2022-07-28T16:41:03.556Z,98069.16
2022-07-28T16:43:31.361Z,98066.72
2022-07-28T16:45:58.017Z,98066.63
2022-07-28T16:48:24.689Z,98074.06
2022-07-28T16:50:51.267Z,98065.94
2022-07-28T16:53:17.857Z,98069.25
2022-07-28T16:55:46.937Z,98064.97
2022-07-28T16:58:14.117Z,98067.63
2022-07-28T17:00:40.857Z,98060.38
2022-07-28T17:03:07.565Z,98063.41
2022-07-28T17:05:37.736Z,98058.56
2022-07-28T17:08:04.900Z,98061.47
2022-07-28T17:10:31.721Z,98051.06
2022-07-28T17:12:58.598Z,98051.22
2022-07-28T17:15:25.260Z,98042.66
2022-07-28T17:17:52.731Z,98047.38
2022-07-28T17:20:20.883Z,98048.50
2022-07-28T17:22:47.675Z,98054.28
2022-07-28T17:28:01.528Z,98059.81
2022-07-28T17:30:29.852Z,98056.97
2022-07-28T17:32:58.826Z,98060.84
2022-07-28T17:35:31.496Z,98063.16
2022-07-28T17:38:01.435Z,98062.88
2022-07-28T17:40:28.044Z,98070.59
2022-07-28T17:42:54.628Z,98063.47
2022-07-28T17:45:21.735Z,98071.75
2022-07-28T17:47:48.289Z,98075.16
2022-07-28T17:50:15.094Z,98075.03
2022-07-28T17:52:42.962Z,98076.72
2022-07-28T17:55:29.158Z,98069.31
2022-07-28T17:57:57.726Z,98074.44
2022-07-28T18:00:24.357Z,98081.59
2022-07-28T18:02:51.106Z,98075.31
2022-07-28T18:05:17.862Z,98080.72
2022-07-28T18:07:51.185Z,98080.75
2022-07-28T18:10:24.514Z,98085.44
2022-07-28T18:12:51.992Z,98085.69
2022-07-28T18:15:18.894Z,98081.25
2022-07-28T18:17:54.458Z,98080.66
2022-07-28T18:20:22.530Z,98087.78
2022-07-28T18:22:49.350Z,98082.09
2022-07-28T18:25:15.933Z,98097.66
2022-07-28T18:27:42.690Z,98096.19
2022-07-28T18:30:10.105Z,98097.06
2022-07-28T18:32:36.625Z,98091.50
2022-07-28T18:35:03.196Z,98097.75
2022-07-28T18:37:30.884Z,98091.88
2022-07-28T18:39:57.672Z,98097.75
2022-07-28T18:42:24.455Z,98103.28
2022-07-28T18:44:51.072Z,98107.97
2022-07-28T18:47:17.643Z,98103.63
2022-07-28T18:49:44.201Z,98099.47
2022-07-28T18:52:10.746Z,98107.41
2022-07-28T18:54:37.430Z,98102.16
2022-07-28T18:57:04.209Z,98104.59
2022-07-28T18:59:30.831Z,98115.28
2022-07-28T19:01:57.476Z,98109.13
2022-07-28T19:04:24.112Z,98116.56
2022-07-28T19:06:51.232Z,98114.19
2022-07-28T19:09:18.858Z,98117.44
2022-07-28T19:11:46.429Z,98114.44
2022-07-28T19:14:15.509Z,98117.84
2022-07-28T19:16:42.895Z,98114.44
2022-07-28T19:19:09.614Z,98121.97
2022-07-28T19:21:36.235Z,98117.38
2022-07-28T19:24:03.723Z,98119.09
2022-07-28T19:26:30.300Z,98125.88
2022-07-28T19:28:57.696Z,98130.56
2022-07-28T19:31:25.448Z,98129.38
2022-07-28T19:33:52.578Z,98133.34
2022-07-28T19:36:19.962Z,98131.38
2022-07-28T19:38:46.529Z,98144.44
2022-07-28T19:41:13.458Z,98151.06
2022-07-28T19:43:40.425Z,98151.06
2022-07-28T19:46:07.299Z,98156.97
2022-07-28T19:48:34.260Z,98168.50
2022-07-28T19:51:01.004Z,98158.44
2022-07-28T19:53:32.249Z,98168.38
2022-07-28T19:56:01.274Z,98170.94
2022-07-28T19:58:28.420Z,98175.06
2022-07-28T20:00:55.791Z,98172.97
2022-07-28T20:04:01.862Z,98173.84
2022-07-28T20:06:10.143Z,98184.53
2022-07-28T20:08:36.854Z,98184.78
2022-07-28T20:11:03.614Z,98188.34
2022-07-28T20:13:30.270Z,98192.66
2022-07-28T20:15:56.814Z,98191.91
2022-07-28T20:18:23.479Z,98198.88
2022-07-28T20:20:50.277Z,98193.63
2022-07-28T20:23:16.900Z,98194.59
2022-07-28T20:25:45.214Z,98201.75
2022-07-28T20:28:12.395Z,98208.00
2022-07-28T20:30:39.576Z,98203.69
2022-07-28T20:33:07.882Z,98203.34
2022-07-28T20:35:34.494Z,98207.63
2022-07-28T20:38:01.577Z,98207.63
2022-07-28T20:40:28.176Z,98205.19
2022-07-28T20:42:54.849Z,98209.34
2022-07-28T20:45:21.598Z,98210.59
2022-07-28T20:47:48.163Z,98211.59
2022-07-28T20:50:15.664Z,98213.31
2022-07-28T20:52:42.405Z,98216.00
2022-07-28T20:55:11.251Z,98217.25
2022-07-28T20:57:37.923Z,98215.41
2022-07-28T21:00:06.412Z,98212.09
2022-07-28T21:02:33.036Z,98211.25
2022-07-28T21:04:59.642Z,98206.94
2022-07-28T21:08:05.239Z,98217.13
2022-07-28T21:10:13.674Z,98211.94
2022-07-28T21:12:40.329Z,98214.53
2022-07-28T21:15:08.105Z,98209.59
2022-07-28T21:17:34.901Z,98218.22
2022-07-28T21:20:01.780Z,98217.22
2022-07-28T21:22:28.401Z,98215.38
2022-07-28T21:24:55.814Z,98211.06
2022-07-28T21:27:23.682Z,98215.38
2022-07-28T21:32:17.274Z,98216.59
2022-07-28T21:34:43.855Z,98215.97
2022-07-28T21:37:11.615Z,98215.47
2022-07-28T21:39:39.022Z,98217.53
2022-07-28T21:42:08.448Z,98219.63
2022-07-28T21:44:36.832Z,98211.88
2022-07-28T21:47:03.837Z,98216.50
2022-07-28T21:49:31.201Z,98214.56
2022-07-28T21:51:57.828Z,98210.25
2022-07-28T21:54:24.471Z,98216.13
2022-07-28T21:56:51.115Z,98211.59
2022-07-28T21:59:17.685Z,98216.47
2022-07-28T22:01:44.463Z,98210.47
2022-07-28T22:04:11.044Z,98217.84
2022-07-28T22:06:37.650Z,98216.59
2022-07-28T22:09:04.414Z,98217.56
2022-07-28T22:11:31.019Z,98214.34
2022-07-28T22:13:57.680Z,98218.28
2022-07-28T22:16:24.265Z,98217.66
2022-07-28T22:18:50.837Z,98226.81
2022-07-28T22:21:17.431Z,98239.56
2022-07-28T22:23:44.078Z,98237.09
2022-07-28T22:26:10.662Z,98229.34
2022-07-28T22:28:37.286Z,98221.59
2022-07-28T22:31:08.786Z,98228.81
2022-07-28T22:33:38.077Z,98230.34
2022-07-28T22:36:08.874Z,98233.72
2022-07-28T22:38:35.885Z,98231.25
2022-07-28T22:41:02.651Z,98237.41
2022-07-28T22:43:31.976Z,98232.69
2022-07-28T22:45:58.637Z,98229.91
2022-07-28T22:48:25.308Z,98227.63
2022-07-28T22:50:52.011Z,98231.97
2022-07-28T22:53:18.639Z,98226.91
2022-07-28T22:55:45.182Z,98226.81
2022-07-28T22:58:11.733Z,98226.09
2022-07-28T23:00:38.342Z,98222.41
2022-07-28T23:03:05.157Z,98225.88
2022-07-28T23:05:32.216Z,98227.06
2022-07-28T23:07:59.145Z,98224.63
2022-07-28T23:10:26.329Z,98229.03
2022-07-28T23:12:55.168Z,98223.31
2022-07-28T23:15:25.182Z,98225.16
2022-07-28T23:18:10.171Z,98224.38
2022-07-28T23:20:38.343Z,98215.81
2022-07-28T23:23:04.905Z,98215.81
2022-07-28T23:25:31.631Z,98219.56
2022-07-28T23:27:58.246Z,98217.75
2022-07-28T23:30:24.840Z,98221.28
2022-07-28T23:32:52.954Z,98216.03
2022-07-28T23:35:19.511Z,98218.09
2022-07-28T23:37:46.057Z,98227.66
2022-07-28T23:40:13.219Z,98223.03
2022-07-28T23:42:39.834Z,98215.06
2022-07-28T23:45:06.866Z,98212.25
2022-07-28T23:47:34.353Z,98212.38
2022-07-28T23:50:02.158Z,98216.34
2022-07-28T23:52:29.108Z,98220.91
2022-07-28T23:54:55.876Z,98224.66
2022-07-28T23:57:22.495Z,98210.78
2022-07-28T23:59:49.028Z,98206.47
